Time;durP1;ratioP1;P1;durP2;ratioP2;P2;SDS_P1;SDS_P2;PMS_P1;PMS_P2;Temp;Humidity;BMP_temperature;BMP_pressure;BME280_temperature;BME280_humidity;BME280_pressure;Samples;Min_cycle;Max_cycle;Signal;HPM_P1;HPM_P2
2023/06/02 00:01:53;;;;;;;9.25;2.65;;;15.40;99.90;;;15.70;100.00;100371.75;4914139;29;20230;-77
2023/06/02 00:04:23;;;;;;;13.85;3.92;;;15.30;99.90;;;15.80;100.00;100408.97;4913443;29;20239;-78
2023/06/02 00:06:51;;;;;;;10.20;2.78;;;15.30;99.90;;;15.78;100.00;100424.09;4905463;29;20263;-78
2023/06/02 00:09:19;;;;;;;10.52;2.88;;;15.10;99.90;;;15.48;100.00;100416.38;4914206;29;20239;-83
2023/06/02 00:11:46;;;;;;;12.27;3.20;;;15.10;99.90;;;15.48;100.00;100445.72;4911515;29;20722;-77
2023/06/02 00:14:14;;;;;;;12.20;3.28;;;15.20;99.90;;;15.46;100.00;100464.38;4912563;29;20239;-77
2023/06/02 00:16:46;;;;;;;8.00;2.28;;;15.10;99.90;;;15.31;100.00;100465.41;4916254;29;20243;-76
2023/06/02 00:19:14;;;;;;;11.68;3.38;;;15.00;99.90;;;15.29;100.00;100483.19;4913159;29;20298;-77
2023/06/02 00:21:42;;;;;;;10.23;2.83;;;15.00;99.90;;;15.39;100.00;100515.97;4913348;29;20250;-77
2023/06/02 00:24:09;;;;;;;10.45;2.85;;;15.00;99.90;;;15.19;100.00;100505.50;4912846;29;20244;-77
2023/06/02 00:26:37;;;;;;;7.68;2.35;;;14.90;99.90;;;15.20;100.00;100514.38;4913481;29;20691;-77
2023/06/02 00:29:04;;;;;;;8.80;2.50;;;14.80;99.90;;;15.16;100.00;100550.81;4913448;29;20242;-76
2023/06/02 00:31:31;;;;;;;8.77;2.55;;;14.80;99.90;;;14.93;100.00;100545.66;4913666;29;20235;-77
2023/06/02 00:33:58;;;;;;;7.03;2.20;;;14.70;99.90;;;14.79;100.00;100550.19;4910059;29;20338;-76
2023/06/02 00:36:25;;;;;;;9.35;2.90;;;14.50;99.90;;;14.81;100.00;100569.69;4910831;29;20231;-77
2023/06/02 00:38:52;;;;;;;9.70;2.92;;;14.40;99.90;;;14.96;100.00;100596.22;4911023;29;20282;-77
2023/06/02 00:41:20;;;;;;;6.13;2.05;;;14.60;99.90;;;14.76;100.00;100582.16;4912998;29;20242;-78
2023/06/02 00:43:47;;;;;;;5.88;2.00;;;14.40;99.90;;;14.84;100.00;100596.31;4913870;29;20235;-77
2023/06/02 00:46:14;;;;;;;9.27;2.75;;;14.40;99.90;;;14.55;100.00;100588.47;4915713;29;20254;-77
2023/06/02 00:48:42;;;;;;;8.75;2.75;;;14.20;99.90;;;14.60;100.00;100604.41;4913822;29;20258;-76
2023/06/02 00:51:10;;;;;;;8.02;2.47;;;14.20;99.90;;;14.71;100.00;100614.13;4909917;29;20238;-76
2023/06/02 00:53:38;;;;;;;8.60;2.75;;;14.30;99.90;;;14.48;100.00;100608.03;4911377;29;20231;-77
2023/06/02 00:56:05;;;;;;;9.77;3.03;;;14.20;99.90;;;14.57;100.00;100623.94;4914382;29;20239;-78
2023/06/02 00:58:37;;;;;;;9.10;2.70;;;14.00;99.90;;;14.34;100.00;100626.66;4914075;29;20235;-77
2023/06/02 01:01:08;;;;;;;7.45;3.08;;;14.00;99.90;;;14.38;100.00;100649.72;4913494;29;20271;-77
2023/06/02 01:03:38;;;;;;;8.45;2.75;;;14.10;99.90;;;14.34;100.00;100663.03;4913214;29;20247;-77
2023/06/02 01:06:07;;;;;;;10.10;3.00;;;13.90;99.90;;;14.19;100.00;100668.34;4912616;29;20247;-75
2023/06/02 01:08:39;;;;;;;9.93;2.85;;;13.90;99.90;;;14.09;100.00;100683.44;4907210;29;20243;-76
2023/06/02 01:11:07;;;;;;;8.75;2.50;;;13.80;99.90;;;14.13;100.00;100697.63;4910676;29;20320;-76
2023/06/02 01:13:35;;;;;;;11.50;3.22;;;13.80;99.90;;;14.05;100.00;100709.16;4915076;29;20254;-76
2023/06/02 01:16:03;;;;;;;8.10;2.55;;;13.60;99.90;;;13.83;100.00;100707.38;4907619;29;20243;-75
2023/06/02 01:18:35;;;;;;;10.77;3.00;;;13.60;99.90;;;14.03;100.00;100745.50;4913546;29;20227;-75
2023/06/02 01:21:05;;;;;;;13.75;3.72;;;13.60;99.90;;;13.89;100.00;100735.75;4913222;29;20341;-76
2023/06/02 01:23:35;;;;;;;10.10;2.67;;;13.60;99.90;;;13.91;100.00;100737.50;4926686;29;20266;-75
2023/06/02 01:26:08;;;;;;;7.97;2.30;;;13.60;99.90;;;13.95;100.00;100752.59;4914040;29;20298;-75
2023/06/02 01:28:36;;;;;;;13.85;3.88;;;;;;;13.72;100.00;100741.94;4912264;29;20239;-75
2023/06/02 01:31:23;;;;;;;8.73;2.40;;;13.40;99.90;;;13.69;100.00;100763.19;4913455;29;20250;-76
2023/06/02 01:34:14;;;;;;;8.15;2.30;;;13.40;99.90;;;13.65;100.00;100763.19;4911413;29;20325;-75
2023/06/02 01:36:42;;;;;;;7.90;2.28;;;13.30;99.90;;;13.35;100.00;100756.03;4911110;29;20246;-75
2023/06/02 01:39:11;;;;;;;9.90;2.70;;;13.20;99.90;;;13.52;100.00;100777.34;4910811;29;20676;-75
2023/06/02 01:41:43;;;;;;;9.25;2.80;;;13.20;99.90;;;13.43;100.00;100780.84;4911153;29;20231;-75
2023/06/02 01:44:11;;;;;;;6.95;2.15;;;13.10;99.90;;;13.55;100.00;100794.16;4917634;29;20244;-75
2023/06/02 01:46:40;;;;;;;8.45;2.67;;;13.20;99.90;;;13.42;100.00;100787.03;4911254;29;20318;-76
2023/06/02 01:49:15;;;;;;;9.45;2.78;;;13.10;99.90;;;13.25;100.00;100784.34;4906565;29;20254;-76
2023/06/02 01:51:44;;;;;;;7.47;2.33;;;13.00;99.90;;;13.13;100.00;100792.22;4913018;29;20237;-76
2023/06/02 01:54:11;;;;;;;9.57;2.90;;;12.80;99.90;;;13.09;100.00;100811.69;4919163;29;20234;-76
2023/06/02 01:56:39;;;;;;;8.23;2.45;;;;;;;13.19;100.00;100812.63;4918916;29;20235;-76
2023/06/02 01:59:07;;;;;;;10.15;2.92;;;12.80;99.90;;;13.17;100.00;100822.38;4916890;29;20611;-76
2023/06/02 02:01:34;;;;;;;8.95;2.70;;;12.80;99.90;;;13.25;100.00;100840.13;4909163;29;20299;-75
2023/06/02 02:04:01;;;;;;;6.15;2.00;;;12.80;99.90;;;13.10;100.00;100829.38;4928103;29;20243;-75
2023/06/02 02:06:29;;;;;;;11.25;3.22;;;12.60;99.90;;;12.95;100.00;100827.50;4915463;29;20249;-76
2023/06/02 02:08:57;;;;;;;8.20;2.45;;;12.70;99.90;;;12.98;100.00;100847.88;4915079;29;20231;-75
2023/06/02 02:11:26;;;;;;;10.43;2.88;;;12.60;99.90;;;12.95;100.00;100850.50;4910395;29;20239;-76
2023/06/02 02:13:54;;;;;;;9.07;2.83;;;12.60;99.90;;;13.02;100.00;100860.31;4915793;29;20253;-76
2023/06/02 02:16:22;;;;;;;9.32;2.88;;;12.50;99.90;;;12.73;100.00;100841.53;4915703;29;20329;-75
2023/06/02 02:18:52;;;;;;;8.07;2.55;;;12.40;99.90;;;12.91;100.00;100864.63;4915474;29;20235;-75
2023/06/02 02:21:19;;;;;;;8.27;2.60;;;12.50;99.90;;;12.81;100.00;100861.94;4914340;29;20238;-75
2023/06/02 02:23:47;;;;;;;7.20;2.80;;;12.50;99.90;;;12.81;100.00;100867.22;4914380;29;20231;-75
2023/06/02 02:26:14;;;;;;;10.57;3.28;;;12.50;99.90;;;12.84;100.00;100879.63;4915176;29;20306;-75
2023/06/02 02:28:41;;;;;;;7.65;2.40;;;;;;;12.78;100.00;100885.78;4914813;29;20250;-75
2023/06/02 02:31:08;;;;;;;9.10;2.88;;;12.50;99.90;;;12.94;100.00;100897.41;4906504;29;20723;-75
2023/06/02 02:33:36;;;;;;;12.70;3.92;;;12.50;99.90;;;12.87;100.00;100892.03;4916502;29;20235;-76
2023/06/02 02:36:03;;;;;;;7.22;2.33;;;12.50;99.90;;;12.69;100.00;100883.06;4910511;29;20255;-75
2023/06/02 02:38:30;;;;;;;9.02;2.80;;;12.40;99.90;;;12.55;100.00;100892.69;4914362;29;20230;-75
2023/06/02 02:40:58;;;;;;;12.07;3.50;;;;;;;12.68;100.00;100904.28;4914406;29;20261;-81
2023/06/02 02:43:25;;;;;;;7.72;2.50;;;12.40;99.90;;;12.54;100.00;100903.28;4915061;29;20235;-76
2023/06/02 02:45:52;;;;;;;7.45;2.30;;;12.30;99.90;;;12.56;100.00;100904.19;4915638;29;20246;-76
2023/06/02 02:48:19;;;;;;;7.43;2.45;;;12.40;99.90;;;12.58;100.00;100919.25;4915514;29;20249;-75
2023/06/02 02:50:46;;;;;;;14.00;3.95;;;12.20;99.90;;;12.61;100.00;100923.69;4912841;29;20700;-75
2023/06/02 02:53:16;;;;;;;6.75;2.20;;;;;;;12.59;100.00;100920.13;4917096;29;20331;-75
2023/06/02 02:55:44;;;;;;;8.57;2.65;;;12.20;99.90;;;12.67;100.00;100934.34;4913059;29;20852;-75
2023/06/02 02:58:11;;;;;;;7.05;2.20;;;12.30;99.90;;;12.36;100.00;100912.84;4914523;29;20235;-75
2023/06/02 03:00:39;;;;;;;8.52;2.92;;;12.10;99.90;;;12.42;100.00;100926.19;4908209;29;20241;-76
2023/06/02 03:03:06;;;;;;;9.20;2.83;;;12.10;99.90;;;12.28;100.00;100929.56;4914291;29;20241;-75
2023/06/02 03:05:34;;;;;;;8.85;2.65;;;12.10;99.90;;;12.59;100.00;100963.47;4912479;29;20601;-75
2023/06/02 03:08:03;;;;;;;9.35;2.85;;;;;;;12.23;100.00;100940.13;4915697;29;20314;-75
2023/06/02 03:10:31;;;;;;;8.20;2.65;;;11.90;99.90;;;12.07;100.00;100946.16;4906578;29;20244;-75
2023/06/02 03:12:58;;;;;;;8.43;2.63;;;;;;;12.05;100.00;100963.81;4913732;29;20676;-75
2023/06/02 03:15:27;;;;;;;9.75;3.13;;;11.90;99.90;;;12.13;100.00;100975.38;4918568;29;20258;-77
2023/06/02 03:17:55;;;;;;;6.53;2.25;;;11.90;99.90;;;12.10;100.00;100981.53;4913225;29;20322;-76
2023/06/02 03:20:22;;;;;;;9.77;3.17;;;11.90;99.90;;;12.23;100.00;100982.56;4915935;29;20331;-76
2023/06/02 03:22:50;;;;;;;7.95;2.58;;;;;;;12.10;100.00;100968.28;4913502;29;20323;-75
2023/06/02 03:25:20;;;;;;;7.55;2.53;;;11.80;99.90;;;12.17;100.00;100982.50;4915336;29;20239;-75
2023/06/02 03:27:49;;;;;;;12.27;3.88;;;11.80;99.90;;;11.93;100.00;100971.59;4914613;29;20322;-76
2023/06/02 03:30:17;;;;;;;8.82;2.72;;;11.70;99.90;;;11.93;100.00;100987.50;4914731;29;20251;-75
2023/06/02 03:32:45;;;;;;;7.15;2.42;;;;;;;11.77;100.00;100995.28;4914044;29;20246;-82
2023/06/02 03:35:12;;;;;;;9.20;2.92;;;;;;;11.91;100.00;101005.16;4915605;29;20295;-75
2023/06/02 03:37:40;;;;;;;12.68;3.72;;;;;;;11.97;100.00;101016.72;4914674;29;20339;-75
2023/06/02 03:40:09;;;;;;;7.68;2.50;;;11.70;99.90;;;11.93;100.00;101008.72;4915300;29;20235;-75
2023/06/02 03:42:36;;;;;;;7.88;2.50;;;11.70;99.90;;;12.13;100.00;101023.09;4911685;29;20605;-76
2023/06/02 03:45:04;;;;;;;7.70;2.50;;;11.70;99.90;;;12.01;100.00;101005.28;4915322;29;20250;-74
2023/06/02 03:47:31;;;;;;;11.82;3.67;;;11.60;99.90;;;11.98;100.00;101007.00;4913923;29;20235;-76
2023/06/02 03:49:58;;;;;;;4.45;1.67;;;11.70;99.90;;;12.12;100.00;101014.25;4919434;29;20269;-78
2023/06/02 03:52:25;;;;;;;8.63;2.72;;;11.70;99.90;;;12.07;100.00;101007.13;4921363;29;20266;-75
2023/06/02 03:54:52;;;;;;;8.88;2.78;;;11.80;99.90;;;11.89;100.00;101010.44;4914402;29;20308;-75
2023/06/02 03:57:20;;;;;;;10.43;3.35;;;;;;;11.92;100.00;101010.47;4914391;29;20239;-77
2023/06/02 03:59:47;;;;;;;8.50;2.85;;;;;;;11.95;100.00;101007.88;4910176;29;20244;-76
2023/06/02 04:02:14;;;;;;;8.50;2.97;;;11.60;99.90;;;11.90;100.00;101028.13;4912072;29;20242;-77
2023/06/02 04:04:42;;;;;;;6.47;2.13;;;11.60;99.90;;;11.99;100.00;101038.84;4913541;29;20243;-76
2023/06/02 04:07:09;;;;;;;8.50;2.78;;;;;;;12.01;100.00;101038.88;4915248;29;20243;-75
2023/06/02 04:09:36;;;;;;;8.07;3.15;;;11.70;99.90;;;11.98;100.00;101034.41;4913724;29;20242;-76
2023/06/02 04:12:04;;;;;;;6.50;2.20;;;11.60;99.90;;;11.96;100.00;101029.97;4915677;29;20250;-76
2023/06/02 04:14:32;;;;;;;10.50;3.17;;;11.60;99.90;;;11.94;100.00;101035.25;4914539;29;20249;-76
2023/06/02 04:16:59;;;;;;;6.85;2.30;;;11.60;99.90;;;12.08;100.00;101040.72;4914222;29;20257;-75
2023/06/02 04:19:26;;;;;;;8.70;2.80;;;11.60;99.90;;;11.93;100.00;101036.13;4912342;29;20322;-75
2023/06/02 04:21:53;;;;;;;8.82;2.85;;;11.60;99.90;;;12.05;100.00;101045.97;4913953;29;20262;-75
2023/06/02 04:24:20;;;;;;;9.35;3.00;;;11.70;99.90;;;12.15;100.00;101043.47;4914910;29;20247;-75
2023/06/02 04:26:47;;;;;;;6.95;2.20;;;11.80;99.90;;;12.05;100.00;101046.88;4914860;29;20250;-75
2023/06/02 04:29:15;;;;;;;5.85;2.00;;;;;;;12.10;100.00;101039.88;4912535;29;20250;-75
2023/06/02 04:31:47;;;;;;;7.55;2.40;;;11.80;99.90;;;12.07;100.00;101042.47;4914184;29;20280;-75
2023/06/02 04:34:15;;;;;;;7.75;2.58;;;;;;;12.22;100.00;101063.00;4914647;29;20282;-76
2023/06/02 04:36:42;;;;;;;7.55;2.47;;;11.80;99.90;;;12.15;100.00;101054.06;4914186;29;20243;-77
2023/06/02 04:39:10;;;;;;;8.45;2.70;;;11.80;99.90;;;12.31;100.00;101056.91;4914392;29;20243;-75
2023/06/02 04:41:38;;;;;;;8.05;2.58;;;11.90;99.90;;;12.25;100.00;101046.22;4911462;29;20242;-75
2023/06/02 04:44:06;;;;;;;9.80;3.10;;;11.90;99.90;;;12.28;100.00;101033.00;4912252;29;20243;-75
2023/06/02 04:46:33;;;;;;;12.30;3.67;;;;;;;12.30;100.00;101036.56;4913593;29;20246;-75
2023/06/02 04:49:07;;;;;;;8.15;2.47;;;12.00;99.90;;;12.44;100.00;101042.91;4911965;29;20310;-75
2023/06/02 04:51:35;;;;;;;10.73;3.33;;;12.00;99.90;;;12.42;100.00;101032.28;4915578;29;20286;-75
2023/06/02 04:54:03;;;;;;;9.40;2.90;;;11.90;99.90;;;12.56;100.00;101034.19;4912828;29;20731;-76
2023/06/02 04:56:31;;;;;;;10.05;3.08;;;12.10;99.90;;;12.51;100.00;101026.19;4910814;29;20327;-76
2023/06/02 04:58:58;;;;;;;7.82;2.55;;;12.20;99.90;;;12.56;100.00;101019.16;4911198;29;20243;-77
2023/06/02 05:01:26;;;;;;;10.43;3.30;;;10.20;99.90;;;12.67;100.00;101017.50;4912887;29;20243;-78
2023/06/02 05:03:54;;;;;;;8.52;2.78;;;12.30;99.90;;;12.57;100.00;101004.13;4913022;29;20267;-79
2023/06/02 05:06:22;;;;;;;10.40;3.17;;;12.30;99.90;;;12.63;100.00;101002.44;4913230;29;20243;-79
2023/06/02 05:08:51;;;;;;;7.85;2.30;;;12.30;99.90;;;12.81;100.00;101012.31;4913264;29;20246;-80
2023/06/02 05:11:19;;;;;;;8.70;2.75;;;12.40;99.90;;;12.81;100.00;100999.94;4912671;29;20237;-78
2023/06/02 05:13:46;;;;;;;7.28;2.40;;;;;;;12.78;100.00;100989.31;4912793;29;20249;-78
2023/06/02 05:16:14;;;;;;;11.57;3.78;;;12.80;99.90;;;12.82;100.00;100988.44;4908144;29;20317;-78
2023/06/02 05:18:41;;;;;;;14.88;4.70;;;;;;;12.94;100.00;100986.78;4901755;29;20227;-77
2023/06/02 05:21:08;;;;;;;8.30;2.78;;;12.60;99.90;;;12.92;100.00;100972.59;4912272;29;20251;-77
2023/06/02 05:23:37;;;;;;;9.05;2.90;;;12.60;99.90;;;12.95;100.00;100965.56;4912952;29;20247;-81
2023/06/02 05:26:04;;;;;;;8.10;2.67;;;12.60;99.90;;;13.13;100.00;100978.09;4913786;29;20261;-77
2023/06/02 05:28:31;;;;;;;9.38;2.92;;;12.80;99.90;;;13.08;100.00;100975.41;4910634;29;20231;-77
2023/06/02 05:30:58;;;;;;;9.35;2.88;;;12.80;99.90;;;13.13;100.00;100971.03;4926536;29;20254;-73
2023/06/02 05:33:29;;;;;;;7.97;2.78;;;;;;;13.18;100.00;100959.59;4906906;29;20230;-74
2023/06/02 05:35:56;;;;;;;7.43;2.47;;;12.70;99.90;;;13.12;100.00;100940.03;4911679;29;20246;-75
2023/06/02 05:38:23;;;;;;;8.00;2.63;;;12.80;99.90;;;13.37;100.00;100946.44;4913473;29;20253;-74
2023/06/02 05:40:53;;;;;;;10.43;3.33;;;13.00;99.90;;;13.40;100.00;100940.25;4910814;29;20271;-74
2023/06/02 05:43:20;;;;;;;7.07;2.40;;;13.10;99.90;;;13.37;100.00;100932.25;4912179;29;20313;-74
2023/06/02 05:45:47;;;;;;;9.00;2.97;;;13.00;99.90;;;13.51;100.00;100917.28;4912142;29;20239;-75
2023/06/02 05:48:15;;;;;;;6.55;2.20;;;13.10;99.90;;;13.50;100.00;100910.19;4917284;29;20246;-79
2023/06/02 05:50:43;;;;;;;9.68;3.05;;;13.20;99.90;;;13.43;100.00;100903.06;4921850;29;20321;-78
2023/06/02 05:53:10;;;;;;;6.18;2.15;;;13.10;99.90;;;13.56;100.00;100890.72;4917798;29;20242;-77
2023/06/02 05:55:38;;;;;;;9.13;3.05;;;13.00;99.90;;;13.49;100.00;100880.94;4913506;29;20226;-77
2023/06/02 05:58:05;;;;;;;8.02;2.85;;;13.10;99.90;;;13.55;100.00;100876.53;4913448;29;20247;-77
2023/06/02 06:00:32;;;;;;;8.68;3.38;;;13.30;99.90;;;13.67;100.00;100878.34;4914443;29;20242;-77
2023/06/02 06:02:59;;;;;;;9.30;2.97;;;13.30;99.90;;;13.72;100.00;100865.97;4912508;29;20609;-77
2023/06/02 06:05:27;;;;;;;8.70;2.83;;;13.30;99.90;;;13.60;100.00;100842.91;4910867;29;20322;-76
2023/06/02 06:07:54;;;;;;;5.85;2.03;;;13.40;99.90;;;13.80;100.00;100847.38;4929542;29;20234;-77
2023/06/02 06:10:22;;;;;;;5.35;1.98;;;13.40;99.90;;;13.84;100.00;100841.19;4915427;29;20239;-77
2023/06/02 06:12:49;;;;;;;7.50;2.63;;;13.50;99.90;;;13.94;100.00;100843.00;4911153;29;20294;-76
2023/06/02 06:15:17;;;;;;;6.85;2.40;;;13.50;99.90;;;14.01;100.00;100843.00;4909844;29;20242;-77
2023/06/02 06:17:51;;;;;;;7.53;2.60;;;13.60;99.90;;;13.88;100.00;100824.38;4912844;29;20235;-77
2023/06/02 06:20:20;;;;;;;8.27;2.72;;;13.60;99.90;;;14.04;100.00;100810.19;4908897;29;20349;-76
2023/06/02 06:22:47;;;;;;;8.38;2.88;;;;;;;14.07;100.00;100811.09;4909576;29;20231;-77
2023/06/02 06:25:15;;;;;;;7.43;2.40;;;13.80;99.90;;;14.15;100.00;100805.78;4913277;29;20310;-78
2023/06/02 06:27:42;;;;;;;7.20;2.55;;;13.80;99.90;;;14.17;100.00;100811.09;4914229;29;20242;-77
2023/06/02 06:30:10;;;;;;;8.43;2.95;;;13.80;99.90;;;14.48;100.00;100828.91;4914946;29;20239;-77
2023/06/02 06:32:37;;;;;;;9.43;3.08;;;14.00;99.90;;;14.25;100.00;100796.03;4914874;29;20306;-78
2023/06/02 06:35:05;;;;;;;6.28;2.38;;;14.00;99.90;;;14.48;100.00;100810.28;4915342;29;20330;-77
2023/06/02 06:37:32;;;;;;;7.18;2.33;;;14.10;99.90;;;14.22;100.00;100791.59;4917096;29;20254;-77
2023/06/02 06:40:00;;;;;;;7.22;2.60;;;13.90;99.90;;;14.34;100.00;100796.06;4913851;29;20246;-77
2023/06/02 06:42:27;;;;;;;8.10;2.70;;;14.00;99.90;;;14.55;100.00;100801.38;4914333;29;20242;-77
2023/06/02 06:44:54;;;;;;;7.35;2.60;;;14.10;99.90;;;14.28;100.00;100782.72;4916434;29;20231;-78
2023/06/02 06:47:21;;;;;;;9.15;2.90;;;14.00;99.90;;;14.57;100.00;100777.44;4918642;29;20253;-80
2023/06/02 06:49:51;;;;;;;9.65;3.25;;;14.20;99.90;;;14.59;100.00;100762.34;4915625;29;20235;-77
2023/06/02 06:52:19;;;;;;;6.88;2.38;;;14.30;99.90;;;14.64;100.00;100750.78;4915940;29;20238;-77
2023/06/02 06:54:47;;;;;;;9.60;3.25;;;14.50;99.90;;;14.74;100.00;100749.00;4915609;29;20249;-78
2023/06/02 06:59:58;;;;;;;4.82;2.00;;;14.30;99.90;;;14.78;100.00;100736.56;4883855;29;20300;-80
2023/06/02 07:02:25;;;;;;;5.85;2.33;;;14.30;99.90;;;15.05;100.00;100721.34;4894088;29;20240;-80
2023/06/02 07:04:52;;;;;;;6.88;2.33;;;14.70;99.90;;;14.93;100.00;100713.41;4897796;29;20239;-80
2023/06/02 07:07:19;;;;;;;9.13;3.05;;;14.70;99.90;;;14.61;100.00;100678.94;4891115;29;20240;-80
2023/06/02 07:09:47;;;;;;;10.60;3.60;;;14.50;99.90;;;15.01;100.00;100727.59;4887928;29;20244;-78
2023/06/02 07:12:14;;;;;;;5.50;2.17;;;14.50;99.90;;;15.04;100.00;100695.63;4892597;29;20250;-81
2023/06/02 07:14:42;;;;;;;7.35;2.70;;;;;;;15.16;100.00;100685.78;4893677;29;20236;-79
2023/06/02 07:17:09;;;;;;;5.22;2.10;;;14.80;99.90;;;15.42;100.00;100686.50;4895242;29;20247;-78
2023/06/02 07:19:36;;;;;;;7.90;2.80;;;15.00;99.90;;;15.35;100.00;100679.44;4895177;29;20610;-79
2023/06/02 07:22:04;;;;;;;5.38;2.08;;;15.00;99.90;;;15.43;100.00;100660.75;4892133;29;20248;-79
2023/06/02 07:24:31;;;;;;;7.43;2.63;;;15.00;99.90;;;15.45;100.00;100658.94;4894091;29;20247;-79
2023/06/02 07:26:58;;;;;;;5.88;2.10;;;;;;;15.65;100.00;100665.09;4897195;29;20306;-79
2023/06/02 07:29:25;;;;;;;7.88;2.83;;;15.30;99.90;;;16.02;100.00;100662.97;4895938;29;20250;-79
2023/06/02 07:31:53;;;;;;;7.82;2.58;;;15.40;99.90;;;15.66;100.00;100621.53;4896312;29;20260;-79
2023/06/02 07:34:20;;;;;;;8.95;3.03;;;15.40;99.90;;;15.52;100.00;100604.69;4897653;29;20238;-79
2023/06/02 07:36:49;;;;;;;6.95;2.45;;;;;;;15.76;100.00;100611.66;4892536;29;20250;-80
2023/06/02 07:39:17;;;;;;;5.85;2.10;;;15.30;99.90;;;15.92;100.00;100619.50;4893694;29;20227;-81
2023/06/02 07:41:44;;;;;;;5.90;2.13;;;15.60;99.90;;;15.99;100.00;100618.53;4896023;29;20236;-78
2023/06/02 07:44:11;;;;;;;6.72;2.35;;;15.60;99.90;;;16.25;100.00;100623.59;4895528;29;20247;-78
2023/06/02 07:46:38;;;;;;;6.43;2.30;;;16.10;99.90;;;16.58;100.00;100621.44;4893500;29;20239;-80
2023/06/02 07:49:06;;;;;;;4.70;1.77;;;;;;;16.43;100.00;100566.44;4897602;29;20235;-81
2023/06/02 07:51:34;;;;;;;6.75;2.60;;;15.80;99.90;;;16.03;100.00;100522.47;4888543;29;20273;-80
2023/06/02 07:54:04;;;;;;;5.78;2.20;;;;;;;15.80;100.00;100482.75;4896461;29;20323;-79
2023/06/02 07:56:31;;;;;;;5.18;1.90;;;15.60;99.90;;;16.18;100.00;100530.28;4898219;29;20251;-79
2023/06/02 07:58:58;;;;;;;6.32;2.35;;;15.70;99.90;;;16.29;100.00;100526.59;4895478;29;20614;-79
2023/06/02 08:01:25;;;;;;;8.20;2.78;;;15.90;99.90;;;16.42;100.00;100510.41;4887897;29;20239;-79
2023/06/02 08:03:53;;;;;;;6.40;2.40;;;;;;;16.57;100.00;100526.22;4896895;29;20263;-79
2023/06/02 08:06:20;;;;;;;5.20;1.85;;;16.10;99.90;;;16.70;100.00;100506.47;4894928;29;20278;-79
2023/06/02 08:08:47;;;;;;;6.65;2.28;;;16.20;99.90;;;16.36;100.00;100433.97;4894103;29;20252;-80
2023/06/02 08:11:15;;;;;;;9.75;3.33;;;;;;;15.94;100.00;100348.31;4895688;29;20246;-79
2023/06/02 08:13:44;;;;;;;8.07;2.80;;;;;;;16.59;100.00;100439.84;4895223;29;20235;-81
2023/06/02 08:16:11;;;;;;;5.70;2.20;;;16.10;99.90;;;16.72;100.00;100440.56;4895589;29;20298;-81
2023/06/02 08:18:55;;;;;;;9.65;3.20;;;;;;;16.77;100.00;100428.03;4892246;29;20294;-80
2023/06/02 08:21:23;;;;;;;5.60;2.00;;;;;;;17.06;100.00;100430.25;4894636;29;20361;-79
2023/06/02 08:23:50;;;;;;;6.47;2.25;;;16.60;99.90;;;17.28;100.00;100436.97;4894017;29;20243;-80
2023/06/02 08:26:17;;;;;;;5.97;2.13;;;17.00;99.90;;;17.04;100.00;100373.28;4896004;29;20251;-78
2023/06/02 08:28:49;;;;;;;5.65;2.08;;;16.60;99.90;;;16.87;100.00;100279.19;4892807;29;20240;-79
2023/06/02 08:31:22;;;;;;;5.72;2.03;;;16.60;99.90;;;17.21;100.00;100322.19;4894301;29;20247;-79
2023/06/02 08:33:53;;;;;;;6.45;2.35;;;16.80;99.90;;;17.13;100.00;100279.59;4895431;29;20283;-79
2023/06/02 08:36:21;;;;;;;6.68;2.42;;;;;;;17.14;100.00;100261.75;4894852;29;20240;-79
2023/06/02 08:38:51;;;;;;;5.18;1.90;;;17.10;99.90;;;17.52;100.00;100271.63;4894544;29;20299;-78
2023/06/02 08:41:19;;;;;;;4.80;1.85;;;17.10;99.90;;;17.48;100.00;100260.13;4896586;29;20239;-79
2023/06/02 08:43:48;;;;;;;7.13;2.72;;;17.20;99.90;;;17.57;100.00;100241.22;4894548;29;20231;-79
2023/06/02 08:46:16;;;;;;;5.20;2.00;;;17.20;99.90;;;17.65;100.00;100206.25;4897274;29;20716;-78
2023/06/02 08:48:46;;;;;;;4.75;1.98;;;17.30;99.90;;;17.97;100.00;100220.69;4896031;29;20260;-79
2023/06/02 08:51:23;;;;;;;7.15;2.70;;;17.60;99.90;;;17.73;100.00;100174.03;4889219;29;20300;-78
2023/06/02 08:53:50;;;;;;;4.70;1.88;;;17.00;99.60;;;17.56;100.00;100102.19;4892323;29;20231;-82
2023/06/02 08:56:18;;;;;;;5.70;2.15;;;17.00;99.90;;;17.84;100.00;100155.91;4893300;29;20247;-80
2023/06/02 08:58:46;;;;;;;12.35;4.47;;;14.30;98.00;;;18.08;100.00;100135.69;4885948;29;20247;-82
2023/06/02 09:01:13;;;;;;;9.77;3.38;;;;;;;18.03;100.00;100100.13;4888616;29;20675;-82
2023/06/02 09:03:41;;;;;;;5.90;2.40;;;;;;;17.87;100.00;100036.34;4893405;29;20252;-80
2023/06/02 09:06:26;;;;;;;7.50;2.80;;;17.70;98.90;;;18.13;100.00;100083.78;4895199;29;20688;-80
2023/06/02 09:09:01;;;;;;;6.32;2.28;;;18.10;99.50;;;18.29;100.00;100097.66;4903536;29;20288;-81
2023/06/02 09:11:30;;;;;;;6.82;2.88;;;17.90;98.20;;;18.15;100.00;100035.56;4888563;29;20247;-81
2023/06/02 09:13:59;;;;;;;8.77;3.25;;;18.20;98.50;;;18.44;100.00;100065.09;4889657;29;20260;-80
2023/06/02 09:16:38;;;;;;;10.30;3.90;;;18.20;98.80;;;18.73;100.00;100047.31;4882344;29;20247;-79
2023/06/02 09:19:06;;;;;;;4.38;1.80;;;;;;;18.75;100.00;100022.25;4886342;29;20231;-78
2023/06/02 09:21:33;;;;;;;5.25;2.13;;;18.50;97.90;;;18.79;100.00;100006.94;4894880;29;20238;-79
2023/06/02 09:24:02;;;;;;;5.80;2.17;;;18.80;99.20;;;19.06;100.00;100048.06;4892933;29;20245;-81
2023/06/02 09:26:32;;;;;;;5.22;2.10;;;18.80;98.90;;;19.25;100.00;100027.78;4896315;29;20243;-82
2023/06/02 09:29:13;;;;;;;4.05;1.80;;;18.90;97.50;;;19.23;100.00;99977.81;4903201;29;20239;-80
2023/06/02 09:31:52;;;;;;;3.70;1.63;;;18.90;98.10;;;19.31;100.00;99992.72;4895669;29;20263;-80
2023/06/02 09:34:22;;;;;;;3.75;1.63;;;18.90;98.30;;;19.49;100.00;99999.28;4889610;29;20369;-80
2023/06/02 09:36:52;;;;;;;5.60;2.20;;;19.30;98.10;;;19.64;100.00;99968.41;4895328;29;20247;-80
2023/06/02 09:39:34;;;;;;;4.40;1.92;;;19.30;97.60;;;19.29;100.00;99857.84;4895837;29;20322;-79
2023/06/02 09:42:14;;;;;;;9.52;3.75;;;18.90;97.20;;;19.43;100.00;99858.22;4890814;29;20640;-81
2023/06/02 09:45:04;;;;;;;8.52;3.35;;;19.20;96.60;;;19.39;100.00;99819.06;4892999;29;20259;-80
2023/06/02 09:47:40;;;;;;;4.88;2.05;;;19.10;96.80;;;19.78;100.00;99857.00;4894074;29;20235;-80
2023/06/02 09:50:32;;;;;;;4.35;1.77;;;19.30;96.90;;;19.52;100.00;99784.69;4893009;29;20242;-81
2023/06/02 09:53:04;;;;;;;3.90;1.65;;;19.70;95.30;;;19.86;100.00;99753.84;4894967;29;20240;-80
2023/06/02 09:55:35;;;;;;;5.53;2.22;;;19.70;94.70;;;19.53;100.00;99675.59;4898156;29;20243;-81
2023/06/02 09:58:04;;;;;;;4.25;1.77;;;19.40;94.50;;;19.15;100.00;99587.66;4893583;29;20232;-83
2023/06/02 10:00:35;;;;;;;5.35;2.20;;;19.40;95.10;;;19.80;100.00;99709.38;4892021;29;20243;-81
2023/06/02 10:03:03;;;;;;;6.97;2.63;;;19.30;95.40;;;19.76;100.00;99705.06;4892850;29;20244;-82
2023/06/02 10:05:31;;;;;;;4.45;1.80;;;19.50;95.90;;;19.98;100.00;99705.94;4895389;29;20585;-82
2023/06/02 10:08:34;;;;;;;4.07;1.92;;;18.70;94.10;;;19.37;100.00;99578.75;4895565;29;20685;-81
2023/06/02 10:11:53;;;;;;;7.28;2.85;;;19.90;96.60;;;20.68;100.00;99798.81;4898059;29;20235;-81
2023/06/02 10:14:40;;;;;;;4.30;1.75;;;20.00;96.50;;;20.21;100.00;99610.16;4887302;29;20231;-81
2023/06/02 10:17:26;;;;;;;6.00;2.90;;;20.10;93.50;;;19.55;100.00;99486.00;4897542;29;20237;-81
2023/06/02 10:20:20;;;;;;;4.30;1.88;;;20.00;95.60;;;20.42;100.00;99646.84;4891285;29;20747;-82
2023/06/02 10:23:08;;;;;;;3.25;2.00;;;20.10;94.80;;;20.41;99.27;99572.59;4900657;29;20251;-81
2023/06/02 10:26:21;;;;;;;3.50;1.65;;;20.30;93.30;;;20.76;100.00;99654.28;4892738;29;20243;-82
2023/06/02 10:28:49;;;;;;;3.50;1.67;;;20.40;94.90;;;20.73;100.00;99635.59;4891979;29;20230;-82